Hamburg Express — DFKM2 — position and weather

sailwx.info

Track history (hours):
 
Tides and Currents Weather Stations Pressure Air Temp Water Temp Dewpoint Dewpoint Depression Visibility Wind Speed Wind Dir Waves Ship Positions

Hamburg Express

Last reported at 2014-Oct-02 01:33 UTC. Time now 2014-Oct-02 02:31 UTC.
Position N 50°54' W 001°27'.

Length 366 m; draft 13.5 m.

Type: Cargo ship. MMSI: 218774000.

Date/timePositionNaut miles runAvg speedWind from/ knotsBaromVisibWave heightAir tempDewpointWater temp
2014-Oct-02 01:33N 50°54' W 001°27'0 0.0
2014-Oct-02 00:33N 50°54' W 001°27'0 0.0
2014-Oct-01 23:33N 50°54' W 001°27'0 0.0
2014-Oct-01 22:33N 50°54' W 001°27'0 0.0
2014-Oct-01 21:30N 50°54' W 001°27'0 0.0
2014-Oct-01 20:33N 50°54' W 001°27'0 0.0
2014-Oct-01 19:33N 50°54' W 001°27'0 0.0
2014-Oct-01 18:33N 50°54' W 001°27'0 0.0
2014-Oct-01 17:33N 50°54' W 001°27'0 0.0
2014-Oct-01 16:33N 50°54' W 001°27'2 1.5
2014-Oct-01 15:33N 50°54' W 001°25'8 8.1
2014-Oct-01 14:33N 50°47' W 001°19'1414.3
2014-Oct-01 13:33N 50°42' W 000°58'9 8.5
2014-Oct-01 12:34N 50°34' W 000°57'1212.0
2014-Oct-01 11:33N 50°23' W 000°50'3214.1
2014-Oct-01 09:18N 49°52' W 000°35'1114.6
2014-Oct-01 08:33N 49°43' W 000°28'1414.3
2014-Oct-01 07:33N 49°33' W 000°12'1313.0
2014-Oct-01 06:33N 49°28' E 000°07'2 1.6
2014-Oct-01 05:33N 49°28' E 000°09'0 0.0
2014-Oct-01 04:33N 49°28' E 000°09'0 0.0
2014-Oct-01 03:33N 49°28' E 000°09'0 0.0
2014-Oct-01 02:33N 49°28' E 000°09'0 0.0
2014-Oct-01 01:33N 49°28' E 000°09'0 0.0
2014-Oct-01 00:33N 49°28' E 000°09'0 0.0
2014-Sep-30 23:33N 49°28' E 000°09'0 0.0
2014-Sep-30 22:33N 49°28' E 000°09'0 0.0
2014-Sep-30 21:33N 49°28' E 000°09'0 0.0
2014-Sep-30 20:33N 49°28' E 000°09'0 0.0
2014-Sep-30 19:33N 49°28' E 000°09'0 0.0
2014-Sep-30 18:33N 49°28' E 000°09'0 0.0
2014-Sep-30 17:33N 49°28' E 000°09'0 0.0
2014-Sep-30 16:30N 49°28' E 000°09'0 0.0
2014-Sep-30 15:33N 49°28' E 000°09'0 0.0
2014-Sep-30 14:33N 49°28' E 000°09'0 0.0
2014-Sep-30 13:30N 49°28' E 000°09'0 0.0
2014-Sep-30 12:33N 49°28' E 000°09'0 0.0
2014-Sep-30 11:33N 49°28' E 000°09'0 0.0
2014-Sep-30 10:33N 49°28' E 000°09'0 0.0
2014-Sep-30 09:33N 49°28' E 000°09'0 0.0
2014-Sep-30 08:33N 49°28' E 000°09'0 0.0
2014-Sep-30 07:30N 49°28' E 000°09'0 0.0
2014-Sep-30 06:33N 49°28' E 000°09'0 0.0
2014-Sep-30 05:33N 49°28' E 000°09'0 0.0
2014-Sep-30 04:33N 49°28' E 000°09'1 0.6
2014-Sep-30 03:33N 49°28' E 000°08'1110.5
2014-Sep-30 02:33N 49°31' W 000°07'1110.9
2014-Sep-30 01:33N 49°36' W 000°22'1615.7
2014-Sep-30 00:33N 49°42' W 000°44'1717.0
2014-Sep-29 23:33N 49°49' W 001°08'10318.5
2014-Sep-29 18:00N 49°24' W 003°42'9615.9 290 / 51021.7 5.4 0.517.012.515.0
2014-Sep-29 12:00N 48°30' W 005°42'3614.8 190 / 81022.010.8 0.521.415.217.8
2014-Sep-29 09:33N 47°60' W 006°12'16717.5
2014-Sep-29 00:00N 45°30' W 008°00'10116.9 200 / 141021.010.8 18.814.519.2
2014-Sep-28 18:00N 44°00' W 009°06'30216.8 230 / 81020.127.0 0.520.513.619.2
2014-Sep-28 00:00N 39°00' W 009°48'3016.1 100 / 41020.110.8 19.614.420.9
2014-Sep-27 22:08N 38°30' W 009°48'1017.4
2014-Sep-27 21:32N 38°20' W 009°46'1717.5
2014-Sep-27 20:33N 38°03' W 009°41'1817.5
2014-Sep-27 19:33N 37°46' W 009°36'1717.3
2014-Sep-27 18:33N 37°29' W 009°30'1832.2
2014-Sep-27 18:00N 37°12' W 009°24'1 2.2 300 / 101017.610.8 0.522.516.822.3
2014-Sep-27 17:33N 37°13' W 009°25'4615.5
2014-Sep-27 14:33N 36°38' W 008°46'1717.0
2014-Sep-27 13:33N 36°33' W 008°26'2717.3
2014-Sep-27 12:00N 36°24' W 007°54'12716.6 200 / 131018.210.8 0.524.118.722.3
2014-Sep-27 04:20N 36°01' W 005°19'6916.0
2014-Sep-27 00:00N 36°12' W 003°54'10217.0 040 / 151020.1 5.4 21.119.622.0
2014-Sep-26 18:00N 36°24' W 001°48'20016.7 070 / 111020.1 5.4 1.024.020.222.8
2014-Sep-26 06:00N 37°00' E 002°18'10617.7 090 / 81019.227.0 0.522.317.024.5
2014-Sep-26 00:00N 37°12' E 004°30'10617.6 070 / 141020.710.8 23.017.224.2
2014-Sep-25 18:00N 37°24' E 006°42'10116.8 020 / 81018.210.8 0.523.317.225.9
2014-Sep-25 12:00N 37°36' E 008°48'22916.7 999 / 21016.410.8 25.519.425.8
2014-Sep-24 22:16N 36°50' E 013°30'1216.8
2014-Sep-24 21:33N 36°47' E 013°45'1716.6
2014-Sep-24 20:33N 36°43' E 014°05'1716.8
2014-Sep-24 19:33N 36°39' E 014°25'1817.2
2014-Sep-24 18:31N 36°35' E 014°47'1717.2
2014-Sep-24 17:30N 36°31' E 015°08'9417.0
2014-Sep-24 12:00N 36°06' E 017°00'42217.6 040 / 101019.910.8 0.525.715.426.7
2014-Sep-23 12:00N 34°00' E 025°12'   250 / 131013.8 5.4 0.527.724.325.9
Track history (hours):
 
Tides and Currents Weather Stations Pressure Air Temp Water Temp Dewpoint Dewpoint Depression Visibility Wind Speed Wind Dir Waves Ship Positions

Hamburg Express

Last reported at 2014-Oct-02 01:33 UTC. Time now 2014-Oct-02 02:31 UTC.
Position N 50°54' W 001°27'.

Length 366 m; draft 13.5 m.

Type: Cargo ship. MMSI: 218774000.

Date/timePositionNaut miles runAvg speedWind from/ knotsBaromVisibWave heightAir tempDewpointWater temp
2014-Oct-02 01:33N 50°54' W 001°27'0 0.0
2014-Oct-02 00:33N 50°54' W 001°27'0 0.0
2014-Oct-01 23:33N 50°54' W 001°27'0 0.0
2014-Oct-01 22:33N 50°54' W 001°27'0 0.0
2014-Oct-01 21:30N 50°54' W 001°27'0 0.0
2014-Oct-01 20:33N 50°54' W 001°27'0 0.0
2014-Oct-01 19:33N 50°54' W 001°27'0 0.0
2014-Oct-01 18:33N 50°54' W 001°27'0 0.0
2014-Oct-01 17:33N 50°54' W 001°27'0 0.0
2014-Oct-01 16:33N 50°54' W 001°27'2 1.5
2014-Oct-01 15:33N 50°54' W 001°25'8 8.1
2014-Oct-01 14:33N 50°47' W 001°19'1414.3
2014-Oct-01 13:33N 50°42' W 000°58'9 8.5
2014-Oct-01 12:34N 50°34' W 000°57'1212.0
2014-Oct-01 11:33N 50°23' W 000°50'3214.1
2014-Oct-01 09:18N 49°52' W 000°35'1114.6
2014-Oct-01 08:33N 49°43' W 000°28'1414.3
2014-Oct-01 07:33N 49°33' W 000°12'1313.0
2014-Oct-01 06:33N 49°28' E 000°07'2 1.6
2014-Oct-01 05:33N 49°28' E 000°09'0 0.0
2014-Oct-01 04:33N 49°28' E 000°09'0 0.0
2014-Oct-01 03:33N 49°28' E 000°09'0 0.0
2014-Oct-01 02:33N 49°28' E 000°09'0 0.0
2014-Oct-01 01:33N 49°28' E 000°09'0 0.0
2014-Oct-01 00:33N 49°28' E 000°09'0 0.0
2014-Sep-30 23:33N 49°28' E 000°09'0 0.0
2014-Sep-30 22:33N 49°28' E 000°09'0 0.0
2014-Sep-30 21:33N 49°28' E 000°09'0 0.0
2014-Sep-30 20:33N 49°28' E 000°09'0 0.0
2014-Sep-30 19:33N 49°28' E 000°09'0 0.0
2014-Sep-30 18:33N 49°28' E 000°09'0 0.0
2014-Sep-30 17:33N 49°28' E 000°09'0 0.0
2014-Sep-30 16:30N 49°28' E 000°09'0 0.0
2014-Sep-30 15:33N 49°28' E 000°09'0 0.0
2014-Sep-30 14:33N 49°28' E 000°09'0 0.0
2014-Sep-30 13:30N 49°28' E 000°09'0 0.0
2014-Sep-30 12:33N 49°28' E 000°09'0 0.0
2014-Sep-30 11:33N 49°28' E 000°09'0 0.0
2014-Sep-30 10:33N 49°28' E 000°09'0 0.0
2014-Sep-30 09:33N 49°28' E 000°09'0 0.0
2014-Sep-30 08:33N 49°28' E 000°09'0 0.0
2014-Sep-30 07:30N 49°28' E 000°09'0 0.0
2014-Sep-30 06:33N 49°28' E 000°09'0 0.0
2014-Sep-30 05:33N 49°28' E 000°09'0 0.0
2014-Sep-30 04:33N 49°28' E 000°09'1 0.6
2014-Sep-30 03:33N 49°28' E 000°08'1110.5
2014-Sep-30 02:33N 49°31' W 000°07'1110.9
2014-Sep-30 01:33N 49°36' W 000°22'1615.7
2014-Sep-30 00:33N 49°42' W 000°44'1717.0
2014-Sep-29 23:33N 49°49' W 001°08'10318.5
2014-Sep-29 18:00N 49°24' W 003°42'9615.9 290 / 51021.7 5.4 0.517.012.515.0
2014-Sep-29 12:00N 48°30' W 005°42'3614.8 190 / 81022.010.8 0.521.415.217.8
2014-Sep-29 09:33N 47°60' W 006°12'16717.5
2014-Sep-29 00:00N 45°30' W 008°00'10116.9 200 / 141021.010.8 18.814.519.2
2014-Sep-28 18:00N 44°00' W 009°06'30216.8 230 / 81020.127.0 0.520.513.619.2
2014-Sep-28 00:00N 39°00' W 009°48'3016.1 100 / 41020.110.8 19.614.420.9
2014-Sep-27 22:08N 38°30' W 009°48'1017.4
2014-Sep-27 21:32N 38°20' W 009°46'1717.5
2014-Sep-27 20:33N 38°03' W 009°41'1817.5
2014-Sep-27 19:33N 37°46' W 009°36'1717.3
2014-Sep-27 18:33N 37°29' W 009°30'1832.2
2014-Sep-27 18:00N 37°12' W 009°24'1 2.2 300 / 101017.610.8 0.522.516.822.3
2014-Sep-27 17:33N 37°13' W 009°25'4615.5
2014-Sep-27 14:33N 36°38' W 008°46'1717.0
2014-Sep-27 13:33N 36°33' W 008°26'2717.3
2014-Sep-27 12:00N 36°24' W 007°54'12716.6 200 / 131018.210.8 0.524.118.722.3
2014-Sep-27 04:20N 36°01' W 005°19'6916.0
2014-Sep-27 00:00N 36°12' W 003°54'10217.0 040 / 151020.1 5.4 21.119.622.0
2014-Sep-26 18:00N 36°24' W 001°48'20016.7 070 / 111020.1 5.4 1.024.020.222.8
2014-Sep-26 06:00N 37°00' E 002°18'10617.7 090 / 81019.227.0 0.522.317.024.5
2014-Sep-26 00:00N 37°12' E 004°30'10617.6 070 / 141020.710.8 23.017.224.2
2014-Sep-25 18:00N 37°24' E 006°42'10116.8 020 / 81018.210.8 0.523.317.225.9
2014-Sep-25 12:00N 37°36' E 008°48'22916.7 999 / 21016.410.8 25.519.425.8
2014-Sep-24 22:16N 36°50' E 013°30'1216.8
2014-Sep-24 21:33N 36°47' E 013°45'1716.6
2014-Sep-24 20:33N 36°43' E 014°05'1716.8
2014-Sep-24 19:33N 36°39' E 014°25'1817.2
2014-Sep-24 18:31N 36°35' E 014°47'1717.2
2014-Sep-24 17:30N 36°31' E 015°08'9417.0
2014-Sep-24 12:00N 36°06' E 017°00'42217.6 040 / 101019.910.8 0.525.715.426.7
2014-Sep-23 12:00N 34°00' E 025°12'   250 / 131013.8 5.4 0.527.724.325.9

Dump ship's entire track history